Atlantic Elm — 9HA3054 — position and weather

sailwx.info

Track history (hours):
 
Tides and Currents Weather Stations Pressure Air Temp Water Temp Dewpoint Dewpoint Depression Visibility Wind Speed Wind Dir Waves Ship Positions

Atlantic Elm

Last reported at 2017-May-23 23:21 UTC. Time now 2017-May-24 09:55 UTC.
Position N 36°49' E 000°05'.

Length 190 m; draft 10.7 m.

Type: Cargo ship. MMSI: 229081000.

Date/timePositionNaut miles runAvg speedWind from/ knotsBaromVisibWave heightAir tempDewpointWater temp
2017-May-23 23:21N 36°49' E 000°05'511.8
2017-May-23 22:53N 36°50' E 000°11'511.9
2017-May-23 22:30N 36°52' E 000°17'1211.8
2017-May-23 21:29N 36°54' E 000°31'611.8
2017-May-23 21:00N 36°55' E 000°38'611.8
2017-May-23 20:30N 36°56' E 000°46'611.7
2017-May-23 20:01N 36°57' E 000°53'611.6
2017-May-23 19:30N 36°59' E 000°60'911.9
2017-May-23 18:44N 37°01' E 001°11'312.1
2017-May-23 18:30N 37°02' E 001°14'812.2
2017-May-23 17:53N 37°03' E 001°24'13012.2
2017-May-23 07:12N 37°24' E 004°05'311.9
2017-May-23 06:59N 37°25' E 004°08'711.7
2017-May-23 06:22N 37°25' E 004°17'611.6
2017-May-23 05:49N 37°26' E 004°25'411.6
2017-May-23 05:30N 37°26' E 004°30'611.6
2017-May-23 05:00N 37°26' E 004°37'611.7
2017-May-23 04:30N 37°27' E 004°44'611.7
2017-May-23 04:00N 37°27' E 004°52'611.7
2017-May-23 03:30N 37°28' E 004°59'612.3
2017-May-23 03:00N 37°28' E 005°07'713.6
2017-May-23 02:30N 37°29' E 005°15'612.0
2017-May-23 02:00N 37°29' E 005°23'611.6
2017-May-23 01:30N 37°29' E 005°30'611.7
2017-May-23 01:00N 37°30' E 005°37'611.9
2017-May-23 00:30N 37°30' E 005°45'612.0
2017-May-23 00:00N 37°31' E 005°52'612.1
2017-May-22 23:31N 37°31' E 005°60'612.0
2017-May-22 22:58N 37°32' E 006°08'511.8
2017-May-22 22:31N 37°32' E 006°15'611.9
2017-May-22 22:00N 37°32' E 006°22'611.9
2017-May-22 21:31N 37°33' E 006°30'612.0
2017-May-22 21:00N 37°33' E 006°37'611.8
2017-May-22 20:29N 37°34' E 006°45'712.0
2017-May-22 19:55N 37°34' E 006°54'712.2
2017-May-22 19:20N 37°35' E 007°03'412.0
2017-May-22 19:01N 37°35' E 007°08'712.1
2017-May-22 18:24N 37°36' E 007°17'512.0
2017-May-22 18:00N 37°36' E 007°23'712.3
2017-May-22 17:25N 37°36' E 007°32'612.4
2017-May-22 16:58N 37°37' E 007°39'712.3
2017-May-22 16:25N 37°37' E 007°47'612.1
2017-May-22 15:58N 37°38' E 007°54'612.1
2017-May-22 15:29N 37°38' E 008°02'712.1
2017-May-22 14:54N 37°39' E 008°10'1112.1
2017-May-22 14:00N 37°40' E 008°24'712.1
2017-May-22 13:26N 37°40' E 008°33'612.1
2017-May-22 12:58N 37°41' E 008°40'611.8
2017-May-22 12:28N 37°41' E 008°48'611.6
2017-May-22 11:55N 37°42' E 008°56'711.5
2017-May-22 11:20N 37°41' E 009°04'411.3
2017-May-22 11:00N 37°41' E 009°09'7711.0
2017-May-22 04:02N 37°36' E 010°46'111.3
2017-May-22 03:58N 37°36' E 010°46'12710.8
2017-May-21 16:16N 36°45' E 013°12'310.1
2017-May-21 15:59N 36°44' E 013°15'510.0
2017-May-21 15:30N 36°42' E 013°21'510.1
2017-May-21 15:00N 36°41' E 013°27'510.0
2017-May-21 14:30N 36°39' E 013°33'10 9.7
2017-May-21 13:30N 36°35' E 013°44'5 9.8
2017-May-21 13:00N 36°34' E 013°50'5 9.8
2017-May-21 12:30N 36°32' E 013°55'510.0
2017-May-21 12:00N 36°30' E 014°01'510.2
2017-May-21 11:30N 36°28' E 014°07'510.3
2017-May-21 11:00N 36°26' E 014°13'510.2
2017-May-21 10:30N 36°24' E 014°19'510.1
2017-May-21 10:00N 36°23' E 014°25'510.3
2017-May-21 09:30N 36°23' E 014°31'510.4
2017-May-21 09:00N 36°23' E 014°38'510.5
2017-May-21 08:29N 36°23' E 014°44'41710.8
2017-May-19 17:48N 36°58' E 023°23'411.3
2017-May-19 17:29N 37°01' E 023°25'611.7
2017-May-19 17:00N 37°06' E 023°30'1912.1
2017-May-19 15:27N 37°21' E 023°44'511.2
2017-May-19 15:00N 37°26' E 023°45'1211.8
2017-May-19 14:00N 37°37' E 023°44'611.8
2017-May-19 13:30N 37°43' E 023°41'611.7
2017-May-19 13:00N 37°48' E 023°37'611.1
2017-May-19 12:30N 37°53' E 023°36'4 7.5
2017-May-19 12:00N 37°57' E 023°35'3 6.2
2017-May-19 11:31N 37°59' E 023°33'3 6.1
2017-May-19 11:00N 38°02' E 023°32'0 0.2
2017-May-19 10:28N 38°03' E 023°32'0 0.0
2017-May-19 09:58N 38°03' E 023°32'0 0.0
2017-May-19 09:28N 38°03' E 023°32'0 0.0
2017-May-19 08:58N 38°03' E 023°32'0 0.0
2017-May-19 08:28N 38°03' E 023°32'0 0.0
2017-May-19 07:58N 38°03' E 023°32'0 0.0
2017-May-19 07:28N 38°03' E 023°32'0 0.0
2017-May-19 06:58N 38°03' E 023°32'0 0.0
2017-May-19 06:28N 38°02' E 023°32'0 0.0
2017-May-19 05:58N 38°02' E 023°32'0 0.0
2017-May-19 05:28N 38°03' E 023°32'0 0.0
2017-May-19 04:58N 38°03' E 023°32'0 0.0
2017-May-19 04:28N 38°03' E 023°32'0 0.0
2017-May-19 03:58N 38°02' E 023°32'0 0.0
2017-May-19 03:28N 38°02' E 023°32'0 0.0
2017-May-19 02:58N 38°02' E 023°32'0 0.0
2017-May-19 02:28N 38°03' E 023°32'0 0.0
2017-May-19 01:58N 38°03' E 023°32'0 0.0
2017-May-19 01:28N 38°03' E 023°32'0 0.0
2017-May-19 00:58N 38°03' E 023°32'0 0.0
2017-May-19 00:28N 38°02' E 023°32'0 0.0
2017-May-18 23:58N 38°03' E 023°32'0 0.0
2017-May-18 23:28N 38°03' E 023°32'0 0.0
2017-May-18 22:58N 38°03' E 023°32'0 0.0
2017-May-18 22:28N 38°02' E 023°32'0 0.0
2017-May-18 21:58N 38°03' E 023°32'0 0.0
2017-May-18 21:28N 38°03' E 023°32'0 0.0
2017-May-18 20:58N 38°02' E 023°32'0 0.0
2017-May-18 20:28N 38°03' E 023°32'0 0.0
2017-May-18 19:58N 38°03' E 023°32'0 0.0
2017-May-18 19:28N 38°02' E 023°32'0 0.0
2017-May-18 18:58N 38°03' E 023°32'0 0.0
2017-May-18 18:28N 38°03' E 023°32'0 0.0
2017-May-18 17:58N 38°02' E 023°32'0 0.0
2017-May-18 17:28N 38°03' E 023°32'0 0.0
2017-May-18 16:55N 38°03' E 023°32'0 0.0
2017-May-18 16:28N 38°03' E 023°32'0 0.0
2017-May-18 15:58N 38°03' E 023°32'0 0.0
2017-May-18 15:28N 38°03' E 023°32'0 0.0
2017-May-18 14:58N 38°03' E 023°32'0 0.0
2017-May-18 14:28N 38°03' E 023°32'0 0.0
2017-May-18 13:28N 38°03' E 023°32'0 0.0
2017-May-18 12:58N 38°02' E 023°32'0 0.0
2017-May-18 12:28N 38°03' E 023°32'0 0.0
2017-May-18 11:58N 38°03' E 023°32'0 0.0
2017-May-18 11:28N 38°03' E 023°32'0 0.0
2017-May-18 10:58N 38°03' E 023°32'0 0.0
2017-May-18 10:28N 38°03' E 023°32'0 0.0
2017-May-18 09:58N 38°03' E 023°32'0 0.0
2017-May-18 09:28N 38°03' E 023°32'0 0.0
2017-May-18 08:58N 38°03' E 023°32'0 0.0
2017-May-18 08:28N 38°03' E 023°32'0 0.0
2017-May-18 07:58N 38°03' E 023°32'0 0.0
2017-May-18 07:28N 38°03' E 023°32'0 0.0
2017-May-18 06:58N 38°03' E 023°32'0 0.0
2017-May-18 06:28N 38°03' E 023°32'0 0.0
2017-May-18 05:58N 38°03' E 023°32'0 0.0
2017-May-18 05:28N 38°03' E 023°32'0 0.0
2017-May-18 04:58N 38°03' E 023°32'0 0.0
2017-May-18 04:28N 38°03' E 023°32'0 0.0
2017-May-18 03:58N 38°03' E 023°32'0 0.0
2017-May-18 03:28N 38°03' E 023°32'0 0.0
2017-May-18 02:58N 38°03' E 023°32'0 0.0
2017-May-18 02:28N 38°03' E 023°32'0 0.0
2017-May-18 01:58N 38°02' E 023°32'0 0.0
2017-May-18 01:28N 38°03' E 023°32'0 0.0
2017-May-18 00:58N 38°03' E 023°32'0 0.0
2017-May-18 00:28N 38°03' E 023°32'0 0.0
2017-May-17 23:58N 38°03' E 023°32'0 0.0
2017-May-17 23:28N 38°02' E 023°32'0 0.0
2017-May-17 22:58N 38°02' E 023°32'0 0.0
2017-May-17 22:28N 38°02' E 023°32'0 0.0
2017-May-17 21:58N 38°03' E 023°32'0 0.0
2017-May-17 21:28N 38°03' E 023°32'0 0.0
2017-May-17 20:58N 38°03' E 023°32'0 0.0
2017-May-17 20:28N 38°03' E 023°32'0 0.0
2017-May-17 19:58N 38°02' E 023°32'0 0.0
2017-May-17 19:28N 38°03' E 023°32'0 0.0
2017-May-17 18:58N 38°03' E 023°32'0 0.0
2017-May-17 18:25N 38°03' E 023°32'0 0.0
2017-May-17 17:58N 38°03' E 023°32'0 0.0
2017-May-17 17:28N 38°03' E 023°32'0 0.0
2017-May-17 16:58N 38°03' E 023°32'0 0.0
2017-May-17 16:28N 38°03' E 023°32'0 0.0
2017-May-17 15:58N 38°03' E 023°32'0 0.0
2017-May-17 15:28N 38°02' E 023°32'0 0.0
2017-May-17 14:58N 38°03' E 023°32'0 0.0
2017-May-17 13:58N 38°03' E 023°32'0 0.0
2017-May-17 13:28N 38°02' E 023°32'0 0.0
2017-May-17 12:58N 38°03' E 023°32'0 0.0
2017-May-17 12:28N 38°03' E 023°32'0 0.0
2017-May-17 11:58N 38°03' E 023°32'0 0.0
2017-May-17 11:28N 38°03' E 023°32'0 0.0
2017-May-17 10:58N 38°03' E 023°32'0 0.0
2017-May-17 10:28N 38°03' E 023°32'0 0.0
2017-May-17 09:58N 38°03' E 023°32'0 0.0
2017-May-17 09:28N 38°03' E 023°32'0 0.0
2017-May-17 08:58N 38°03' E 023°32'0 0.0
2017-May-17 08:28N 38°03' E 023°32'0 0.0
2017-May-17 07:58N 38°03' E 023°32'0 0.0
2017-May-17 07:28N 38°03' E 023°32'0 0.0
2017-May-17 06:58N 38°03' E 023°32'0 0.0
2017-May-17 06:28N 38°03' E 023°32'0 0.0
2017-May-17 05:58N 38°03' E 023°32'0 0.0
2017-May-17 05:28N 38°03' E 023°32'0 0.0
2017-May-17 04:58N 38°02' E 023°32'0 0.0
2017-May-17 04:28N 38°02' E 023°32'0 0.0
2017-May-17 03:58N 38°03' E 023°32'0 0.0
2017-May-17 03:28N 38°03' E 023°32'0 0.0
2017-May-17 02:58N 38°03' E 023°32'0 0.0
2017-May-17 02:28N 38°02' E 023°32'0 0.0
2017-May-17 01:58N 38°03' E 023°32'0 0.0
2017-May-17 01:28N 38°03' E 023°32'0 0.0
2017-May-17 00:58N 38°02' E 023°32'0 0.0
2017-May-17 00:28N 38°03' E 023°32'0 0.0
2017-May-16 23:58N 38°03' E 023°32'0 0.0
2017-May-16 23:28N 38°03' E 023°32'0 0.0
2017-May-16 22:58N 38°02' E 023°32'0 0.0
2017-May-16 22:28N 38°03' E 023°32'0 0.0
2017-May-16 21:58N 38°03' E 023°32'0 0.0
2017-May-16 21:28N 38°03' E 023°32'0 0.0
2017-May-16 20:58N 38°03' E 023°32'0 0.0
2017-May-16 20:28N 38°03' E 023°32'0 0.0
2017-May-16 19:58N 38°03' E 023°32'0 0.0
2017-May-16 19:28N 38°03' E 023°32'0 0.0
2017-May-16 18:58N 38°03' E 023°32'0 0.0
2017-May-16 18:28N 38°03' E 023°32'0 0.0
2017-May-16 17:58N 38°03' E 023°32'0 0.0
2017-May-16 17:28N 38°03' E 023°32'0 0.0
2017-May-16 16:58N 38°03' E 023°32'0 0.0
2017-May-16 16:28N 38°03' E 023°32'0 0.0
2017-May-16 15:58N 38°03' E 023°32'0 0.0
2017-May-16 15:28N 38°03' E 023°32'0 0.0
2017-May-16 14:58N 38°03' E 023°32'0 0.0
2017-May-16 14:28N 38°03' E 023°32'0 0.0
2017-May-16 13:28N 38°03' E 023°32'0 0.0
2017-May-16 12:58N 38°02' E 023°32'0 0.0
2017-May-16 12:28N 38°03' E 023°32'0 0.0
2017-May-16 11:58N 38°03' E 023°32'0 0.0
2017-May-16 11:28N 38°03' E 023°32'0 0.0
2017-May-16 10:58N 38°03' E 023°32'0 0.0
2017-May-16 10:28N 38°03' E 023°32'0 0.0
2017-May-16 09:58N 38°03' E 023°32'0 0.0
2017-May-16 09:28N 38°02' E 023°32'0 0.0
2017-May-16 08:58N 38°03' E 023°32'0 0.0
2017-May-16 08:28N 38°03' E 023°32'0 0.0
2017-May-16 07:58N 38°02' E 023°32'0 0.0
2017-May-16 07:28N 38°03' E 023°32'0 0.0
2017-May-16 06:55N 38°02' E 023°32'0 0.0
2017-May-16 06:28N 38°03' E 023°32'0 0.0
2017-May-16 05:58N 38°03' E 023°32'0 0.0
2017-May-16 05:28N 38°03' E 023°32'0 0.0
2017-May-16 04:58N 38°03' E 023°32'0 0.0
2017-May-16 04:28N 38°03' E 023°32'0 0.0
2017-May-16 03:58N 38°03' E 023°32'0 0.0
2017-May-16 03:28N 38°03' E 023°32'0 0.0
2017-May-16 02:58N 38°02' E 023°32'0 0.0
2017-May-16 02:28N 38°03' E 023°32'0 0.0
2017-May-16 01:58N 38°03' E 023°32'0 0.0
2017-May-16 01:28N 38°03' E 023°32'0 0.0
2017-May-16 00:58N 38°03' E 023°32'0 0.0
2017-May-16 00:28N 38°03' E 023°32'0 0.0
2017-May-15 23:58N 38°03' E 023°32'0 0.0
2017-May-15 23:28N 38°03' E 023°32'0 0.0
2017-May-15 22:58N 38°03' E 023°32'0 0.0
2017-May-15 22:28N 38°03' E 023°32'0 0.0
2017-May-15 21:58N 38°03' E 023°32'0 0.0
2017-May-15 21:28N 38°03' E 023°32'0 0.0
2017-May-15 20:58N 38°03' E 023°32'0 0.0
2017-May-15 20:28N 38°03' E 023°32'0 0.0
2017-May-15 19:58N 38°03' E 023°32'0 0.0
2017-May-15 19:28N 38°03' E 023°32'0 0.0
2017-May-15 18:58N 38°03' E 023°32'0 0.0
2017-May-15 18:28N 38°03' E 023°32'0 0.0
2017-May-15 17:58N 38°03' E 023°32'0 0.0
2017-May-15 17:28N 38°03' E 023°32'0 0.0
2017-May-15 16:58N 38°03' E 023°32'0 0.0
2017-May-15 16:28N 38°03' E 023°32'0 0.0
2017-May-15 15:58N 38°03' E 023°32'0 0.0
2017-May-15 15:28N 38°03' E 023°32'0 0.0
2017-May-15 14:58N 38°03' E 023°32'0 0.0
2017-May-15 13:58N 38°03' E 023°32'0 0.0
2017-May-15 13:28N 38°03' E 023°32'0 0.0
2017-May-15 12:58N 38°03' E 023°32'0 0.0
2017-May-15 12:28N 38°03' E 023°32'0 0.0
2017-May-15 11:58N 38°03' E 023°32'0 0.0
2017-May-15 11:28N 38°03' E 023°32'0 0.0
2017-May-15 10:58N 38°03' E 023°32'0 0.0
2017-May-15 10:28N 38°03' E 023°32'0 0.0
2017-May-15 09:58N 38°03' E 023°32'0 0.0
2017-May-15 09:28N 38°02' E 023°32'0 0.0
2017-May-15 08:58N 38°03' E 023°32'0 0.0
2017-May-15 08:28N 38°03' E 023°32'0 0.0
2017-May-15 07:49N 38°03' E 023°32'0 0.0
2017-May-15 07:28N 38°03' E 023°32'0 0.0
2017-May-15 06:58N 38°02' E 023°32'0 0.0
2017-May-15 06:28N 38°03' E 023°32'0 0.0
2017-May-15 05:58N 38°02' E 023°32'0 0.0
2017-May-15 05:28N 38°03' E 023°32'0 0.0
2017-May-15 04:58N 38°03' E 023°32'0 0.0
2017-May-15 04:28N 38°03' E 023°32'0 0.0
2017-May-15 03:58N 38°02' E 023°32'0 0.0
2017-May-15 03:28N 38°03' E 023°32'0 0.0
2017-May-15 02:58N 38°03' E 023°32'0 0.0
2017-May-15 02:28N 38°03' E 023°32'0 0.0
2017-May-15 01:58N 38°03' E 023°32'0 0.0
2017-May-15 01:28N 38°03' E 023°32'0 0.0
2017-May-15 00:58N 38°02' E 023°32'0 0.0
2017-May-15 00:28N 38°03' E 023°32'0 0.0
2017-May-14 23:58N 38°03' E 023°32'0 0.0
2017-May-14 23:31N 38°03' E 023°32'0 0.0
2017-May-14 22:58N 38°02' E 023°32'0 0.0
2017-May-14 22:28N 38°03' E 023°32'0 0.0
2017-May-14 21:58N 38°03' E 023°32'0 0.0
2017-May-14 21:28N 38°03' E 023°32'0 0.0
2017-May-14 20:58N 38°03' E 023°32'0 0.0
2017-May-14 20:31N 38°03' E 023°32'0 0.0
2017-May-14 20:01N 38°03' E 023°32'0 0.0
2017-May-14 19:28N 38°03' E 023°32'0 0.0
2017-May-14 18:58N 38°03' E 023°32'0 0.0
2017-May-14 18:28N 38°03' E 023°32'0 0.0
2017-May-14 17:58N 38°03' E 023°32'0 0.0
2017-May-14 17:28N 38°03' E 023°32'0 0.0
2017-May-14 16:58N 38°03' E 023°32'0 0.0
2017-May-14 16:28N 38°03' E 023°32'0 0.0
2017-May-14 16:01N 38°03' E 023°32'0 0.0
2017-May-14 15:28N 38°03' E 023°32'0 0.0
2017-May-14 14:58N 38°03' E 023°32'0 0.0
2017-May-14 14:28N 38°03' E 023°32'0 0.0
2017-May-14 13:27N 38°03' E 023°32'0 0.0
2017-May-14 13:01N 38°03' E 023°32'0 0.0
2017-May-14 12:28N 38°03' E 023°32'0 0.0
2017-May-14 11:58N 38°03' E 023°32'0 0.0
2017-May-14 11:31N 38°03' E 023°32'0 0.0
2017-May-14 11:01N 38°03' E 023°32'0 0.0
2017-May-14 10:31N 38°03' E 023°32'0 0.0
2017-May-14 10:01N 38°03' E 023°32'0 0.0
2017-May-14 09:28N 38°02' E 023°32'0 0.0
2017-May-14 08:58N 38°03' E 023°32'0 0.0
2017-May-14 08:31N 38°03' E 023°32'0 0.0
2017-May-14 07:58N 38°03' E 023°32'0 0.0
2017-May-14 07:31N 38°02' E 023°32'0 0.0
2017-May-14 06:58N 38°03' E 023°32'0 0.0
2017-May-14 06:30N 38°03' E 023°32'0 0.0
2017-May-14 05:58N 38°03' E 023°32'0 0.0
2017-May-14 05:30N 38°03' E 023°32'0 0.0
2017-May-14 05:01N 38°03' E 023°32'0 0.0
2017-May-14 04:31N 38°02' E 023°32'0 0.0
2017-May-14 04:01N 38°02' E 023°32'0 0.0
2017-May-14 03:27N 38°03' E 023°32'0 0.0
2017-May-14 02:58N 38°02' E 023°32'0 0.0
2017-May-14 02:27N 38°03' E 023°32'0 0.0
2017-May-14 01:58N 38°03' E 023°32'0 0.0
2017-May-14 01:30N 38°03' E 023°32'0 0.0
2017-May-14 00:58N 38°03' E 023°32'0 0.0
2017-May-14 00:31N 38°02' E 023°32'0 0.0
2017-May-14 00:01N 38°03' E 023°32'0 0.0
2017-May-13 23:30N 38°03' E 023°32'  
Track history (hours):
 
Tides and Currents Weather Stations Pressure Air Temp Water Temp Dewpoint Dewpoint Depression Visibility Wind Speed Wind Dir Waves Ship Positions

Atlantic Elm

Last reported at 2017-May-23 23:21 UTC. Time now 2017-May-24 09:55 UTC.
Position N 36°49' E 000°05'.

Length 190 m; draft 10.7 m.

Type: Cargo ship. MMSI: 229081000.

Date/timePositionNaut miles runAvg speedWind from/ knotsBaromVisibWave heightAir tempDewpointWater temp
2017-May-23 23:21N 36°49' E 000°05'511.8
2017-May-23 22:53N 36°50' E 000°11'511.9
2017-May-23 22:30N 36°52' E 000°17'1211.8
2017-May-23 21:29N 36°54' E 000°31'611.8
2017-May-23 21:00N 36°55' E 000°38'611.8
2017-May-23 20:30N 36°56' E 000°46'611.7
2017-May-23 20:01N 36°57' E 000°53'611.6
2017-May-23 19:30N 36°59' E 000°60'911.9
2017-May-23 18:44N 37°01' E 001°11'312.1
2017-May-23 18:30N 37°02' E 001°14'812.2
2017-May-23 17:53N 37°03' E 001°24'13012.2
2017-May-23 07:12N 37°24' E 004°05'311.9
2017-May-23 06:59N 37°25' E 004°08'711.7
2017-May-23 06:22N 37°25' E 004°17'611.6
2017-May-23 05:49N 37°26' E 004°25'411.6
2017-May-23 05:30N 37°26' E 004°30'611.6
2017-May-23 05:00N 37°26' E 004°37'611.7
2017-May-23 04:30N 37°27' E 004°44'611.7
2017-May-23 04:00N 37°27' E 004°52'611.7
2017-May-23 03:30N 37°28' E 004°59'612.3
2017-May-23 03:00N 37°28' E 005°07'713.6
2017-May-23 02:30N 37°29' E 005°15'612.0
2017-May-23 02:00N 37°29' E 005°23'611.6
2017-May-23 01:30N 37°29' E 005°30'611.7
2017-May-23 01:00N 37°30' E 005°37'611.9
2017-May-23 00:30N 37°30' E 005°45'612.0
2017-May-23 00:00N 37°31' E 005°52'612.1
2017-May-22 23:31N 37°31' E 005°60'612.0
2017-May-22 22:58N 37°32' E 006°08'511.8
2017-May-22 22:31N 37°32' E 006°15'611.9
2017-May-22 22:00N 37°32' E 006°22'611.9
2017-May-22 21:31N 37°33' E 006°30'612.0
2017-May-22 21:00N 37°33' E 006°37'611.8
2017-May-22 20:29N 37°34' E 006°45'712.0
2017-May-22 19:55N 37°34' E 006°54'712.2
2017-May-22 19:20N 37°35' E 007°03'412.0
2017-May-22 19:01N 37°35' E 007°08'712.1
2017-May-22 18:24N 37°36' E 007°17'512.0
2017-May-22 18:00N 37°36' E 007°23'712.3
2017-May-22 17:25N 37°36' E 007°32'612.4
2017-May-22 16:58N 37°37' E 007°39'712.3
2017-May-22 16:25N 37°37' E 007°47'612.1
2017-May-22 15:58N 37°38' E 007°54'612.1
2017-May-22 15:29N 37°38' E 008°02'712.1
2017-May-22 14:54N 37°39' E 008°10'1112.1
2017-May-22 14:00N 37°40' E 008°24'712.1
2017-May-22 13:26N 37°40' E 008°33'612.1
2017-May-22 12:58N 37°41' E 008°40'611.8
2017-May-22 12:28N 37°41' E 008°48'611.6
2017-May-22 11:55N 37°42' E 008°56'711.5
2017-May-22 11:20N 37°41' E 009°04'411.3
2017-May-22 11:00N 37°41' E 009°09'7711.0
2017-May-22 04:02N 37°36' E 010°46'111.3
2017-May-22 03:58N 37°36' E 010°46'12710.8
2017-May-21 16:16N 36°45' E 013°12'310.1
2017-May-21 15:59N 36°44' E 013°15'510.0
2017-May-21 15:30N 36°42' E 013°21'510.1
2017-May-21 15:00N 36°41' E 013°27'510.0
2017-May-21 14:30N 36°39' E 013°33'10 9.7
2017-May-21 13:30N 36°35' E 013°44'5 9.8
2017-May-21 13:00N 36°34' E 013°50'5 9.8
2017-May-21 12:30N 36°32' E 013°55'510.0
2017-May-21 12:00N 36°30' E 014°01'510.2
2017-May-21 11:30N 36°28' E 014°07'510.3
2017-May-21 11:00N 36°26' E 014°13'510.2
2017-May-21 10:30N 36°24' E 014°19'510.1
2017-May-21 10:00N 36°23' E 014°25'510.3
2017-May-21 09:30N 36°23' E 014°31'510.4
2017-May-21 09:00N 36°23' E 014°38'510.5
2017-May-21 08:29N 36°23' E 014°44'41710.8
2017-May-19 17:48N 36°58' E 023°23'411.3
2017-May-19 17:29N 37°01' E 023°25'611.7
2017-May-19 17:00N 37°06' E 023°30'1912.1
2017-May-19 15:27N 37°21' E 023°44'511.2
2017-May-19 15:00N 37°26' E 023°45'1211.8
2017-May-19 14:00N 37°37' E 023°44'611.8
2017-May-19 13:30N 37°43' E 023°41'611.7
2017-May-19 13:00N 37°48' E 023°37'611.1
2017-May-19 12:30N 37°53' E 023°36'4 7.5
2017-May-19 12:00N 37°57' E 023°35'3 6.2
2017-May-19 11:31N 37°59' E 023°33'3 6.1
2017-May-19 11:00N 38°02' E 023°32'0 0.2
2017-May-19 10:28N 38°03' E 023°32'0 0.0
2017-May-19 09:58N 38°03' E 023°32'0 0.0
2017-May-19 09:28N 38°03' E 023°32'0 0.0
2017-May-19 08:58N 38°03' E 023°32'0 0.0
2017-May-19 08:28N 38°03' E 023°32'0 0.0
2017-May-19 07:58N 38°03' E 023°32'0 0.0
2017-May-19 07:28N 38°03' E 023°32'0 0.0
2017-May-19 06:58N 38°03' E 023°32'0 0.0
2017-May-19 06:28N 38°02' E 023°32'0 0.0
2017-May-19 05:58N 38°02' E 023°32'0 0.0
2017-May-19 05:28N 38°03' E 023°32'0 0.0
2017-May-19 04:58N 38°03' E 023°32'0 0.0
2017-May-19 04:28N 38°03' E 023°32'0 0.0
2017-May-19 03:58N 38°02' E 023°32'0 0.0
2017-May-19 03:28N 38°02' E 023°32'0 0.0
2017-May-19 02:58N 38°02' E 023°32'0 0.0
2017-May-19 02:28N 38°03' E 023°32'0 0.0
2017-May-19 01:58N 38°03' E 023°32'0 0.0
2017-May-19 01:28N 38°03' E 023°32'0 0.0
2017-May-19 00:58N 38°03' E 023°32'0 0.0
2017-May-19 00:28N 38°02' E 023°32'0 0.0
2017-May-18 23:58N 38°03' E 023°32'0 0.0
2017-May-18 23:28N 38°03' E 023°32'0 0.0
2017-May-18 22:58N 38°03' E 023°32'0 0.0
2017-May-18 22:28N 38°02' E 023°32'0 0.0
2017-May-18 21:58N 38°03' E 023°32'0 0.0
2017-May-18 21:28N 38°03' E 023°32'0 0.0
2017-May-18 20:58N 38°02' E 023°32'0 0.0
2017-May-18 20:28N 38°03' E 023°32'0 0.0
2017-May-18 19:58N 38°03' E 023°32'0 0.0
2017-May-18 19:28N 38°02' E 023°32'0 0.0
2017-May-18 18:58N 38°03' E 023°32'0 0.0
2017-May-18 18:28N 38°03' E 023°32'0 0.0
2017-May-18 17:58N 38°02' E 023°32'0 0.0
2017-May-18 17:28N 38°03' E 023°32'0 0.0
2017-May-18 16:55N 38°03' E 023°32'0 0.0
2017-May-18 16:28N 38°03' E 023°32'0 0.0
2017-May-18 15:58N 38°03' E 023°32'0 0.0
2017-May-18 15:28N 38°03' E 023°32'0 0.0
2017-May-18 14:58N 38°03' E 023°32'0 0.0
2017-May-18 14:28N 38°03' E 023°32'0 0.0
2017-May-18 13:28N 38°03' E 023°32'0 0.0
2017-May-18 12:58N 38°02' E 023°32'0 0.0
2017-May-18 12:28N 38°03' E 023°32'0 0.0
2017-May-18 11:58N 38°03' E 023°32'0 0.0
2017-May-18 11:28N 38°03' E 023°32'0 0.0
2017-May-18 10:58N 38°03' E 023°32'0 0.0
2017-May-18 10:28N 38°03' E 023°32'0 0.0
2017-May-18 09:58N 38°03' E 023°32'0 0.0
2017-May-18 09:28N 38°03' E 023°32'0 0.0
2017-May-18 08:58N 38°03' E 023°32'0 0.0
2017-May-18 08:28N 38°03' E 023°32'0 0.0
2017-May-18 07:58N 38°03' E 023°32'0 0.0
2017-May-18 07:28N 38°03' E 023°32'0 0.0
2017-May-18 06:58N 38°03' E 023°32'0 0.0
2017-May-18 06:28N 38°03' E 023°32'0 0.0
2017-May-18 05:58N 38°03' E 023°32'0 0.0
2017-May-18 05:28N 38°03' E 023°32'0 0.0
2017-May-18 04:58N 38°03' E 023°32'0 0.0
2017-May-18 04:28N 38°03' E 023°32'0 0.0
2017-May-18 03:58N 38°03' E 023°32'0 0.0
2017-May-18 03:28N 38°03' E 023°32'0 0.0
2017-May-18 02:58N 38°03' E 023°32'0 0.0
2017-May-18 02:28N 38°03' E 023°32'0 0.0
2017-May-18 01:58N 38°02' E 023°32'0 0.0
2017-May-18 01:28N 38°03' E 023°32'0 0.0
2017-May-18 00:58N 38°03' E 023°32'0 0.0
2017-May-18 00:28N 38°03' E 023°32'0 0.0
2017-May-17 23:58N 38°03' E 023°32'0 0.0
2017-May-17 23:28N 38°02' E 023°32'0 0.0
2017-May-17 22:58N 38°02' E 023°32'0 0.0
2017-May-17 22:28N 38°02' E 023°32'0 0.0
2017-May-17 21:58N 38°03' E 023°32'0 0.0
2017-May-17 21:28N 38°03' E 023°32'0 0.0
2017-May-17 20:58N 38°03' E 023°32'0 0.0
2017-May-17 20:28N 38°03' E 023°32'0 0.0
2017-May-17 19:58N 38°02' E 023°32'0 0.0
2017-May-17 19:28N 38°03' E 023°32'0 0.0
2017-May-17 18:58N 38°03' E 023°32'0 0.0
2017-May-17 18:25N 38°03' E 023°32'0 0.0
2017-May-17 17:58N 38°03' E 023°32'0 0.0
2017-May-17 17:28N 38°03' E 023°32'0 0.0
2017-May-17 16:58N 38°03' E 023°32'0 0.0
2017-May-17 16:28N 38°03' E 023°32'0 0.0
2017-May-17 15:58N 38°03' E 023°32'0 0.0
2017-May-17 15:28N 38°02' E 023°32'0 0.0
2017-May-17 14:58N 38°03' E 023°32'0 0.0
2017-May-17 13:58N 38°03' E 023°32'0 0.0
2017-May-17 13:28N 38°02' E 023°32'0 0.0
2017-May-17 12:58N 38°03' E 023°32'0 0.0
2017-May-17 12:28N 38°03' E 023°32'0 0.0
2017-May-17 11:58N 38°03' E 023°32'0 0.0
2017-May-17 11:28N 38°03' E 023°32'0 0.0
2017-May-17 10:58N 38°03' E 023°32'0 0.0
2017-May-17 10:28N 38°03' E 023°32'0 0.0
2017-May-17 09:58N 38°03' E 023°32'0 0.0
2017-May-17 09:28N 38°03' E 023°32'0 0.0
2017-May-17 08:58N 38°03' E 023°32'0 0.0
2017-May-17 08:28N 38°03' E 023°32'0 0.0
2017-May-17 07:58N 38°03' E 023°32'0 0.0
2017-May-17 07:28N 38°03' E 023°32'0 0.0
2017-May-17 06:58N 38°03' E 023°32'0 0.0
2017-May-17 06:28N 38°03' E 023°32'0 0.0
2017-May-17 05:58N 38°03' E 023°32'0 0.0
2017-May-17 05:28N 38°03' E 023°32'0 0.0
2017-May-17 04:58N 38°02' E 023°32'0 0.0
2017-May-17 04:28N 38°02' E 023°32'0 0.0
2017-May-17 03:58N 38°03' E 023°32'0 0.0
2017-May-17 03:28N 38°03' E 023°32'0 0.0
2017-May-17 02:58N 38°03' E 023°32'0 0.0
2017-May-17 02:28N 38°02' E 023°32'0 0.0
2017-May-17 01:58N 38°03' E 023°32'0 0.0
2017-May-17 01:28N 38°03' E 023°32'0 0.0
2017-May-17 00:58N 38°02' E 023°32'0 0.0
2017-May-17 00:28N 38°03' E 023°32'0 0.0
2017-May-16 23:58N 38°03' E 023°32'0 0.0
2017-May-16 23:28N 38°03' E 023°32'0 0.0
2017-May-16 22:58N 38°02' E 023°32'0 0.0
2017-May-16 22:28N 38°03' E 023°32'0 0.0
2017-May-16 21:58N 38°03' E 023°32'0 0.0
2017-May-16 21:28N 38°03' E 023°32'0 0.0
2017-May-16 20:58N 38°03' E 023°32'0 0.0
2017-May-16 20:28N 38°03' E 023°32'0 0.0
2017-May-16 19:58N 38°03' E 023°32'0 0.0
2017-May-16 19:28N 38°03' E 023°32'0 0.0
2017-May-16 18:58N 38°03' E 023°32'0 0.0
2017-May-16 18:28N 38°03' E 023°32'0 0.0
2017-May-16 17:58N 38°03' E 023°32'0 0.0
2017-May-16 17:28N 38°03' E 023°32'0 0.0
2017-May-16 16:58N 38°03' E 023°32'0 0.0
2017-May-16 16:28N 38°03' E 023°32'0 0.0
2017-May-16 15:58N 38°03' E 023°32'0 0.0
2017-May-16 15:28N 38°03' E 023°32'0 0.0
2017-May-16 14:58N 38°03' E 023°32'0 0.0
2017-May-16 14:28N 38°03' E 023°32'0 0.0
2017-May-16 13:28N 38°03' E 023°32'0 0.0
2017-May-16 12:58N 38°02' E 023°32'0 0.0
2017-May-16 12:28N 38°03' E 023°32'0 0.0
2017-May-16 11:58N 38°03' E 023°32'0 0.0
2017-May-16 11:28N 38°03' E 023°32'0 0.0
2017-May-16 10:58N 38°03' E 023°32'0 0.0
2017-May-16 10:28N 38°03' E 023°32'0 0.0
2017-May-16 09:58N 38°03' E 023°32'0 0.0
2017-May-16 09:28N 38°02' E 023°32'0 0.0
2017-May-16 08:58N 38°03' E 023°32'0 0.0
2017-May-16 08:28N 38°03' E 023°32'0 0.0
2017-May-16 07:58N 38°02' E 023°32'0 0.0
2017-May-16 07:28N 38°03' E 023°32'0 0.0
2017-May-16 06:55N 38°02' E 023°32'0 0.0
2017-May-16 06:28N 38°03' E 023°32'0 0.0
2017-May-16 05:58N 38°03' E 023°32'0 0.0
2017-May-16 05:28N 38°03' E 023°32'0 0.0
2017-May-16 04:58N 38°03' E 023°32'0 0.0
2017-May-16 04:28N 38°03' E 023°32'0 0.0
2017-May-16 03:58N 38°03' E 023°32'0 0.0
2017-May-16 03:28N 38°03' E 023°32'0 0.0
2017-May-16 02:58N 38°02' E 023°32'0 0.0
2017-May-16 02:28N 38°03' E 023°32'0 0.0
2017-May-16 01:58N 38°03' E 023°32'0 0.0
2017-May-16 01:28N 38°03' E 023°32'0 0.0
2017-May-16 00:58N 38°03' E 023°32'0 0.0
2017-May-16 00:28N 38°03' E 023°32'0 0.0
2017-May-15 23:58N 38°03' E 023°32'0 0.0
2017-May-15 23:28N 38°03' E 023°32'0 0.0
2017-May-15 22:58N 38°03' E 023°32'0 0.0
2017-May-15 22:28N 38°03' E 023°32'0 0.0
2017-May-15 21:58N 38°03' E 023°32'0 0.0
2017-May-15 21:28N 38°03' E 023°32'0 0.0
2017-May-15 20:58N 38°03' E 023°32'0 0.0
2017-May-15 20:28N 38°03' E 023°32'0 0.0
2017-May-15 19:58N 38°03' E 023°32'0 0.0
2017-May-15 19:28N 38°03' E 023°32'0 0.0
2017-May-15 18:58N 38°03' E 023°32'0 0.0
2017-May-15 18:28N 38°03' E 023°32'0 0.0
2017-May-15 17:58N 38°03' E 023°32'0 0.0
2017-May-15 17:28N 38°03' E 023°32'0 0.0
2017-May-15 16:58N 38°03' E 023°32'0 0.0
2017-May-15 16:28N 38°03' E 023°32'0 0.0
2017-May-15 15:58N 38°03' E 023°32'0 0.0
2017-May-15 15:28N 38°03' E 023°32'0 0.0
2017-May-15 14:58N 38°03' E 023°32'0 0.0
2017-May-15 13:58N 38°03' E 023°32'0 0.0
2017-May-15 13:28N 38°03' E 023°32'0 0.0
2017-May-15 12:58N 38°03' E 023°32'0 0.0
2017-May-15 12:28N 38°03' E 023°32'0 0.0
2017-May-15 11:58N 38°03' E 023°32'0 0.0
2017-May-15 11:28N 38°03' E 023°32'0 0.0
2017-May-15 10:58N 38°03' E 023°32'0 0.0
2017-May-15 10:28N 38°03' E 023°32'0 0.0
2017-May-15 09:58N 38°03' E 023°32'0 0.0
2017-May-15 09:28N 38°02' E 023°32'0 0.0
2017-May-15 08:58N 38°03' E 023°32'0 0.0
2017-May-15 08:28N 38°03' E 023°32'0 0.0
2017-May-15 07:49N 38°03' E 023°32'0 0.0
2017-May-15 07:28N 38°03' E 023°32'0 0.0
2017-May-15 06:58N 38°02' E 023°32'0 0.0
2017-May-15 06:28N 38°03' E 023°32'0 0.0
2017-May-15 05:58N 38°02' E 023°32'0 0.0
2017-May-15 05:28N 38°03' E 023°32'0 0.0
2017-May-15 04:58N 38°03' E 023°32'0 0.0
2017-May-15 04:28N 38°03' E 023°32'0 0.0
2017-May-15 03:58N 38°02' E 023°32'0 0.0
2017-May-15 03:28N 38°03' E 023°32'0 0.0
2017-May-15 02:58N 38°03' E 023°32'0 0.0
2017-May-15 02:28N 38°03' E 023°32'0 0.0
2017-May-15 01:58N 38°03' E 023°32'0 0.0
2017-May-15 01:28N 38°03' E 023°32'0 0.0
2017-May-15 00:58N 38°02' E 023°32'0 0.0
2017-May-15 00:28N 38°03' E 023°32'0 0.0
2017-May-14 23:58N 38°03' E 023°32'0 0.0
2017-May-14 23:31N 38°03' E 023°32'0 0.0
2017-May-14 22:58N 38°02' E 023°32'0 0.0
2017-May-14 22:28N 38°03' E 023°32'0 0.0
2017-May-14 21:58N 38°03' E 023°32'0 0.0
2017-May-14 21:28N 38°03' E 023°32'0 0.0
2017-May-14 20:58N 38°03' E 023°32'0 0.0
2017-May-14 20:31N 38°03' E 023°32'0 0.0
2017-May-14 20:01N 38°03' E 023°32'0 0.0
2017-May-14 19:28N 38°03' E 023°32'0 0.0
2017-May-14 18:58N 38°03' E 023°32'0 0.0
2017-May-14 18:28N 38°03' E 023°32'0 0.0
2017-May-14 17:58N 38°03' E 023°32'0 0.0
2017-May-14 17:28N 38°03' E 023°32'0 0.0
2017-May-14 16:58N 38°03' E 023°32'0 0.0
2017-May-14 16:28N 38°03' E 023°32'0 0.0
2017-May-14 16:01N 38°03' E 023°32'0 0.0
2017-May-14 15:28N 38°03' E 023°32'0 0.0
2017-May-14 14:58N 38°03' E 023°32'0 0.0
2017-May-14 14:28N 38°03' E 023°32'0 0.0
2017-May-14 13:27N 38°03' E 023°32'0 0.0
2017-May-14 13:01N 38°03' E 023°32'0 0.0
2017-May-14 12:28N 38°03' E 023°32'0 0.0
2017-May-14 11:58N 38°03' E 023°32'0 0.0
2017-May-14 11:31N 38°03' E 023°32'0 0.0
2017-May-14 11:01N 38°03' E 023°32'0 0.0
2017-May-14 10:31N 38°03' E 023°32'0 0.0
2017-May-14 10:01N 38°03' E 023°32'0 0.0
2017-May-14 09:28N 38°02' E 023°32'0 0.0
2017-May-14 08:58N 38°03' E 023°32'0 0.0
2017-May-14 08:31N 38°03' E 023°32'0 0.0
2017-May-14 07:58N 38°03' E 023°32'0 0.0
2017-May-14 07:31N 38°02' E 023°32'0 0.0
2017-May-14 06:58N 38°03' E 023°32'0 0.0
2017-May-14 06:30N 38°03' E 023°32'0 0.0
2017-May-14 05:58N 38°03' E 023°32'0 0.0
2017-May-14 05:30N 38°03' E 023°32'0 0.0
2017-May-14 05:01N 38°03' E 023°32'0 0.0
2017-May-14 04:31N 38°02' E 023°32'0 0.0
2017-May-14 04:01N 38°02' E 023°32'0 0.0
2017-May-14 03:27N 38°03' E 023°32'0 0.0
2017-May-14 02:58N 38°02' E 023°32'0 0.0
2017-May-14 02:27N 38°03' E 023°32'0 0.0
2017-May-14 01:58N 38°03' E 023°32'0 0.0
2017-May-14 01:30N 38°03' E 023°32'0 0.0
2017-May-14 00:58N 38°03' E 023°32'0 0.0
2017-May-14 00:31N 38°02' E 023°32'0 0.0
2017-May-14 00:01N 38°03' E 023°32'0 0.0
2017-May-13 23:30N 38°03' E 023°32'  

Dump ship's entire track history